sensor_id;sensor_type;location;lat;lon;timestamp;temperature;humidity
10885;DHT22;5495;53.252;10.390;2023-01-15T00:01:49;7.80;99.90
10885;DHT22;5495;53.252;10.390;2023-01-15T00:04:16;7.80;99.90
10885;DHT22;5495;53.252;10.390;2023-01-15T00:06:43;7.80;99.90
10885;DHT22;5495;53.252;10.390;2023-01-15T00:09:13;7.70;99.90
10885;DHT22;5495;53.252;10.390;2023-01-15T00:11:40;7.70;99.90
10885;DHT22;5495;53.252;10.390;2023-01-15T00:14:07;7.70;99.90
10885;DHT22;5495;53.252;10.390;2023-01-15T00:16:34;7.70;99.90
10885;DHT22;5495;53.252;10.390;2023-01-15T00:19:01;7.60;99.90
10885;DHT22;5495;53.252;10.390;2023-01-15T00:21:30;7.60;99.90
10885;DHT22;5495;53.252;10.390;2023-01-15T00:23:57;7.60;99.90
10885;DHT22;5495;53.252;10.390;2023-01-15T00:26:43;7.60;99.90
10885;DHT22;5495;53.252;10.390;2023-01-15T00:29:28;7.20;99.90
10885;DHT22;5495;53.252;10.390;2023-01-15T00:31:56;7.70;99.90
10885;DHT22;5495;53.252;10.390;2023-01-15T00:34:24;7.70;99.90
10885;DHT22;5495;53.252;10.390;2023-01-15T00:36:51;7.70;99.90
10885;DHT22;5495;53.252;10.390;2023-01-15T00:39:18;7.70;99.90
10885;DHT22;5495;53.252;10.390;2023-01-15T00:41:46;7.70;99.90
10885;DHT22;5495;53.252;10.390;2023-01-15T00:44:16;7.70;99.90
10885;DHT22;5495;53.252;10.390;2023-01-15T00:46:43;7.80;99.90
10885;DHT22;5495;53.252;10.390;2023-01-15T00:49:09;7.90;99.90
10885;DHT22;5495;53.252;10.390;2023-01-15T00:51:36;7.50;99.90
10885;DHT22;5495;53.252;10.390;2023-01-15T00:54:06;7.60;99.90
10885;DHT22;5495;53.252;10.390;2023-01-15T00:56:34;6.40;99.90
10885;DHT22;5495;53.252;10.390;2023-01-15T00:59:03;7.50;99.90
10885;DHT22;5495;53.252;10.390;2023-01-15T01:01:30;7.60;99.90
10885;DHT22;5495;53.252;10.390;2023-01-15T01:03:57;7.50;99.90
10885;DHT22;5495;53.252;10.390;2023-01-15T01:06:27;7.60;99.90
10885;DHT22;5495;53.252;10.390;2023-01-15T01:08:54;7.50;99.90
10885;DHT22;5495;53.252;10.390;2023-01-15T01:11:22;7.50;99.90
10885;DHT22;5495;53.252;10.390;2023-01-15T01:13:52;7.50;99.90
10885;DHT22;5495;53.252;10.390;2023-01-15T01:16:28;7.50;99.90
10885;DHT22;5495;53.252;10.390;2023-01-15T01:18:57;7.40;99.90
10885;DHT22;5495;53.252;10.390;2023-01-15T01:21:24;7.50;99.90
10885;DHT22;5495;53.252;10.390;2023-01-15T01:23:51;7.50;99.90
10885;DHT22;5495;53.252;10.390;2023-01-15T01:26:18;7.00;99.90
10885;DHT22;5495;53.252;10.390;2023-01-15T01:28:48;7.40;99.90
10885;DHT22;5495;53.252;10.390;2023-01-15T01:31:15;7.30;99.90
10885;DHT22;5495;53.252;10.390;2023-01-15T01:33:43;7.40;99.90
10885;DHT22;5495;53.252;10.390;2023-01-15T01:36:10;7.40;99.90
10885;DHT22;5495;53.252;10.390;2023-01-15T01:38:36;7.50;99.90
10885;DHT22;5495;53.252;10.390;2023-01-15T01:41:03;7.40;99.90
10885;DHT22;5495;53.252;10.390;2023-01-15T01:43:50;7.50;99.90
10885;DHT22;5495;53.252;10.390;2023-01-15T01:46:18;7.50;99.90
10885;DHT22;5495;53.252;10.390;2023-01-15T01:48:47;7.40;99.90
10885;DHT22;5495;53.252;10.390;2023-01-15T01:51:16;7.40;99.90
10885;DHT22;5495;53.252;10.390;2023-01-15T01:53:44;7.60;99.90
10885;DHT22;5495;53.252;10.390;2023-01-15T01:56:12;7.50;99.90
10885;DHT22;5495;53.252;10.390;2023-01-15T01:58:43;7.50;99.90
10885;DHT22;5495;53.252;10.390;2023-01-15T02:01:11;7.50;99.90
10885;DHT22;5495;53.252;10.390;2023-01-15T02:03:38;7.80;99.90
10885;DHT22;5495;53.252;10.390;2023-01-15T02:06:08;7.70;99.90
10885;DHT22;5495;53.252;10.390;2023-01-15T02:08:35;7.40;99.90
10885;DHT22;5495;53.252;10.390;2023-01-15T02:11:05;7.50;99.90
10885;DHT22;5495;53.252;10.390;2023-01-15T02:13:36;7.40;99.90
10885;DHT22;5495;53.252;10.390;2023-01-15T02:16:08;7.40;99.90
10885;DHT22;5495;53.252;10.390;2023-01-15T02:18:39;7.40;99.90
10885;DHT22;5495;53.252;10.390;2023-01-15T02:21:15;7.40;99.90
10885;DHT22;5495;53.252;10.390;2023-01-15T02:24:05;7.40;99.90
10885;DHT22;5495;53.252;10.390;2023-01-15T02:26:59;7.40;99.90
10885;DHT22;5495;53.252;10.390;2023-01-15T02:29:33;7.40;99.90
10885;DHT22;5495;53.252;10.390;2023-01-15T02:32:06;7.40;99.90
10885;DHT22;5495;53.252;10.390;2023-01-15T02:34:36;7.40;99.90
10885;DHT22;5495;53.252;10.390;2023-01-15T02:37:05;7.40;99.90
10885;DHT22;5495;53.252;10.390;2023-01-15T02:39:36;7.60;99.90
10885;DHT22;5495;53.252;10.390;2023-01-15T02:42:07;7.40;99.90
10885;DHT22;5495;53.252;10.390;2023-01-15T02:44:39;7.40;99.90
10885;DHT22;5495;53.252;10.390;2023-01-15T02:47:10;7.40;99.90
10885;DHT22;5495;53.252;10.390;2023-01-15T02:49:38;7.40;99.90
10885;DHT22;5495;53.252;10.390;2023-01-15T02:52:09;7.40;99.90
10885;DHT22;5495;53.252;10.390;2023-01-15T02:54:41;7.40;99.90
10885;DHT22;5495;53.252;10.390;2023-01-15T02:57:10;7.40;99.90
10885;DHT22;5495;53.252;10.390;2023-01-15T02:59:41;7.40;99.90
10885;DHT22;5495;53.252;10.390;2023-01-15T03:02:12;7.40;99.90
10885;DHT22;5495;53.252;10.390;2023-01-15T03:04:46;7.40;99.90
10885;DHT22;5495;53.252;10.390;2023-01-15T03:07:17;7.40;99.90
10885;DHT22;5495;53.252;10.390;2023-01-15T03:09:45;7.30;99.90
10885;DHT22;5495;53.252;10.390;2023-01-15T03:12:16;7.20;99.90
10885;DHT22;5495;53.252;10.390;2023-01-15T03:14:48;7.20;99.90
10885;DHT22;5495;53.252;10.390;2023-01-15T03:17:19;7.20;99.90
10885;DHT22;5495;53.252;10.390;2023-01-15T03:19:50;7.20;99.90
10885;DHT22;5495;53.252;10.390;2023-01-15T03:22:25;7.20;99.90
10885;DHT22;5495;53.252;10.390;2023-01-15T03:24:54;7.20;99.90
10885;DHT22;5495;53.252;10.390;2023-01-15T03:27:23;7.20;99.90
10885;DHT22;5495;53.252;10.390;2023-01-15T03:29:52;7.30;99.90
10885;DHT22;5495;53.252;10.390;2023-01-15T03:32:20;7.20;99.90
10885;DHT22;5495;53.252;10.390;2023-01-15T03:34:50;7.30;99.90
10885;DHT22;5495;53.252;10.390;2023-01-15T03:37:20;7.20;99.90
10885;DHT22;5495;53.252;10.390;2023-01-15T03:39:49;7.20;99.90
10885;DHT22;5495;53.252;10.390;2023-01-15T03:42:24;7.20;99.90
10885;DHT22;5495;53.252;10.390;2023-01-15T03:44:58;7.20;99.90
10885;DHT22;5495;53.252;10.390;2023-01-15T03:47:34;7.30;99.90
10885;DHT22;5495;53.252;10.390;2023-01-15T03:50:09;7.30;99.90
10885;DHT22;5495;53.252;10.390;2023-01-15T03:52:44;7.40;99.90
10885;DHT22;5495;53.252;10.390;2023-01-15T03:55:16;7.30;99.90
10885;DHT22;5495;53.252;10.390;2023-01-15T03:57:48;7.20;99.90
10885;DHT22;5495;53.252;10.390;2023-01-15T04:00:20;6.70;99.90
10885;DHT22;5495;53.252;10.390;2023-01-15T04:02:48;7.20;99.90
10885;DHT22;5495;53.252;10.390;2023-01-15T04:05:16;7.30;99.90
10885;DHT22;5495;53.252;10.390;2023-01-15T04:07:44;7.20;99.90
10885;DHT22;5495;53.252;10.390;2023-01-15T04:10:12;7.20;99.90
10885;DHT22;5495;53.252;10.390;2023-01-15T04:12:39;7.20;99.90
10885;DHT22;5495;53.252;10.390;2023-01-15T04:15:09;7.20;99.90
10885;DHT22;5495;53.252;10.390;2023-01-15T04:17:36;7.20;99.90
10885;DHT22;5495;53.252;10.390;2023-01-15T04:20:06;7.50;99.90
10885;DHT22;5495;53.252;10.390;2023-01-15T04:22:33;7.10;99.90
10885;DHT22;5495;53.252;10.390;2023-01-15T04:25:01;7.10;99.90
10885;DHT22;5495;53.252;10.390;2023-01-15T04:27:27;7.60;99.90
10885;DHT22;5495;53.252;10.390;2023-01-15T04:29:54;7.60;99.90
10885;DHT22;5495;53.252;10.390;2023-01-15T04:32:22;6.90;99.90
10885;DHT22;5495;53.252;10.390;2023-01-15T04:34:49;6.80;99.90
10885;DHT22;5495;53.252;10.390;2023-01-15T04:37:18;6.80;99.90
10885;DHT22;5495;53.252;10.390;2023-01-15T04:39:46;7.40;99.90
10885;DHT22;5495;53.252;10.390;2023-01-15T04:42:12;6.90;99.90
10885;DHT22;5495;53.252;10.390;2023-01-15T04:44:57;6.80;99.90
10885;DHT22;5495;53.252;10.390;2023-01-15T04:47:25;7.30;99.90
10885;DHT22;5495;53.252;10.390;2023-01-15T04:49:51;6.80;99.90
10885;DHT22;5495;53.252;10.390;2023-01-15T04:52:18;6.60;99.90
10885;DHT22;5495;53.252;10.390;2023-01-15T04:54:45;6.80;99.90
10885;DHT22;5495;53.252;10.390;2023-01-15T04:57:14;6.80;99.90
10885;DHT22;5495;53.252;10.390;2023-01-15T04:59:40;6.80;99.90
10885;DHT22;5495;53.252;10.390;2023-01-15T05:02:08;6.80;99.90
10885;DHT22;5495;53.252;10.390;2023-01-15T05:04:35;6.70;99.90
10885;DHT22;5495;53.252;10.390;2023-01-15T05:07:03;6.70;99.90
10885;DHT22;5495;53.252;10.390;2023-01-15T05:09:30;6.70;99.90
10885;DHT22;5495;53.252;10.390;2023-01-15T05:12:04;6.80;99.90
10885;DHT22;5495;53.252;10.390;2023-01-15T05:14:37;5.70;99.90
10885;DHT22;5495;53.252;10.390;2023-01-15T05:17:04;6.70;99.90
10885;DHT22;5495;53.252;10.390;2023-01-15T05:19:31;6.70;99.90
10885;DHT22;5495;53.252;10.390;2023-01-15T05:21:58;6.80;99.90
10885;DHT22;5495;53.252;10.390;2023-01-15T05:24:25;6.70;99.90
10885;DHT22;5495;53.252;10.390;2023-01-15T05:26:52;6.70;99.90
10885;DHT22;5495;53.252;10.390;2023-01-15T05:29:20;6.70;99.90
10885;DHT22;5495;53.252;10.390;2023-01-15T05:31:51;6.90;99.90
10885;DHT22;5495;53.252;10.390;2023-01-15T05:34:26;7.10;99.90
10885;DHT22;5495;53.252;10.390;2023-01-15T05:36:53;6.00;99.90
10885;DHT22;5495;53.252;10.390;2023-01-15T05:39:23;6.70;99.90
10885;DHT22;5495;53.252;10.390;2023-01-15T05:41:50;6.70;99.90
10885;DHT22;5495;53.252;10.390;2023-01-15T05:44:21;6.70;99.90
10885;DHT22;5495;53.252;10.390;2023-01-15T05:46:49;6.70;99.90
10885;DHT22;5495;53.252;10.390;2023-01-15T05:49:22;6.70;99.90
10885;DHT22;5495;53.252;10.390;2023-01-15T05:51:57;6.60;99.90
10885;DHT22;5495;53.252;10.390;2023-01-15T05:54:28;6.60;99.90
10885;DHT22;5495;53.252;10.390;2023-01-15T05:56:55;6.80;99.90
10885;DHT22;5495;53.252;10.390;2023-01-15T05:59:24;6.60;99.90
10885;DHT22;5495;53.252;10.390;2023-01-15T06:01:53;6.60;99.90
10885;DHT22;5495;53.252;10.390;2023-01-15T06:04:27;6.60;99.90
10885;DHT22;5495;53.252;10.390;2023-01-15T06:06:55;3.50;99.90
10885;DHT22;5495;53.252;10.390;2023-01-15T06:09:29;6.50;99.90
10885;DHT22;5495;53.252;10.390;2023-01-15T06:11:58;6.50;99.90
10885;DHT22;5495;53.252;10.390;2023-01-15T06:14:31;5.60;99.90
10885;DHT22;5495;53.252;10.390;2023-01-15T06:16:58;6.40;99.90
10885;DHT22;5495;53.252;10.390;2023-01-15T06:19:30;6.40;99.90
10885;DHT22;5495;53.252;10.390;2023-01-15T06:21:58;6.30;99.90
10885;DHT22;5495;53.252;10.390;2023-01-15T06:24:25;6.30;99.90
10885;DHT22;5495;53.252;10.390;2023-01-15T06:26:52;6.20;99.90
10885;DHT22;5495;53.252;10.390;2023-01-15T06:29:21;6.30;99.90
10885;DHT22;5495;53.252;10.390;2023-01-15T06:31:57;6.30;99.90
10885;DHT22;5495;53.252;10.390;2023-01-15T06:34:38;7.20;99.90
10885;DHT22;5495;53.252;10.390;2023-01-15T06:37:09;6.20;99.90
10885;DHT22;5495;53.252;10.390;2023-01-15T06:39:47;6.20;99.90
10885;DHT22;5495;53.252;10.390;2023-01-15T06:42:24;5.90;99.90
10885;DHT22;5495;53.252;10.390;2023-01-15T06:45:11;6.30;99.90
10885;DHT22;5495;53.252;10.390;2023-01-15T06:47:57;6.30;99.90
10885;DHT22;5495;53.252;10.390;2023-01-15T06:50:25;6.20;99.90
10885;DHT22;5495;53.252;10.390;2023-01-15T06:52:51;6.20;99.90
10885;DHT22;5495;53.252;10.390;2023-01-15T06:55:19;6.30;99.90
10885;DHT22;5495;53.252;10.390;2023-01-15T06:57:48;6.20;99.90
10885;DHT22;5495;53.252;10.390;2023-01-15T07:00:15;6.20;99.90
10885;DHT22;5495;53.252;10.390;2023-01-15T07:02:42;7.10;99.90
10885;DHT22;5495;53.252;10.390;2023-01-15T07:05:09;4.40;99.90
10885;DHT22;5495;53.252;10.390;2023-01-15T07:07:36;6.10;99.90
10885;DHT22;5495;53.252;10.390;2023-01-15T07:10:06;6.10;99.90
10885;DHT22;5495;53.252;10.390;2023-01-15T07:12:34;6.20;99.90
10885;DHT22;5495;53.252;10.390;2023-01-15T07:15:05;6.20;99.90
10885;DHT22;5495;53.252;10.390;2023-01-15T07:17:42;6.70;99.90
10885;DHT22;5495;53.252;10.390;2023-01-15T07:20:21;6.30;99.90
10885;DHT22;5495;53.252;10.390;2023-01-15T07:22:55;6.10;99.90
10885;DHT22;5495;53.252;10.390;2023-01-15T07:25:25;5.80;99.90
10885;DHT22;5495;53.252;10.390;2023-01-15T07:27:52;6.10;99.90
10885;DHT22;5495;53.252;10.390;2023-01-15T07:30:20;6.00;99.90
10885;DHT22;5495;53.252;10.390;2023-01-15T07:33:01;6.00;99.90
10885;DHT22;5495;53.252;10.390;2023-01-15T07:35:32;8.10;99.90
10885;DHT22;5495;53.252;10.390;2023-01-15T07:38:00;6.10;99.90
10885;DHT22;5495;53.252;10.390;2023-01-15T07:40:27;6.10;99.90
10885;DHT22;5495;53.252;10.390;2023-01-15T07:42:55;6.00;99.90
10885;DHT22;5495;53.252;10.390;2023-01-15T07:45:41;6.00;99.90
10885;DHT22;5495;53.252;10.390;2023-01-15T07:48:26;6.10;99.90
10885;DHT22;5495;53.252;10.390;2023-01-15T07:51:12;6.60;99.90
10885;DHT22;5495;53.252;10.390;2023-01-15T07:53:43;6.10;99.90
10885;DHT22;5495;53.252;10.390;2023-01-15T07:56:10;6.00;99.90
10885;DHT22;5495;53.252;10.390;2023-01-15T07:58:38;6.10;99.90
10885;DHT22;5495;53.252;10.390;2023-01-15T08:01:04;6.10;99.90
10885;DHT22;5495;53.252;10.390;2023-01-15T08:03:31;6.20;99.90
10885;DHT22;5495;53.252;10.390;2023-01-15T08:06:04;6.10;99.90
10885;DHT22;5495;53.252;10.390;2023-01-15T08:08:36;6.50;99.90
10885;DHT22;5495;53.252;10.390;2023-01-15T08:11:12;6.10;99.90
10885;DHT22;5495;53.252;10.390;2023-01-15T08:14:28;6.50;99.90
10885;DHT22;5495;53.252;10.390;2023-01-15T08:17:10;6.20;99.90
10885;DHT22;5495;53.252;10.390;2023-01-15T08:20:16;6.30;99.90
10885;DHT22;5495;53.252;10.390;2023-01-15T08:23:02;6.20;99.90
10885;DHT22;5495;53.252;10.390;2023-01-15T08:28:35;6.50;99.90
10885;DHT22;5495;53.252;10.390;2023-01-15T08:31:11;6.20;99.90
10885;DHT22;5495;53.252;10.390;2023-01-15T08:33:49;6.30;99.90
10885;DHT22;5495;53.252;10.390;2023-01-15T08:36:26;6.40;99.90
10885;DHT22;5495;53.252;10.390;2023-01-15T08:39:03;3.40;99.90
10885;DHT22;5495;53.252;10.390;2023-01-15T08:41:41;3.70;99.90
10885;DHT22;5495;53.252;10.390;2023-01-15T08:44:54;4.80;99.90
10885;DHT22;5495;53.252;10.390;2023-01-15T08:47:45;4.40;99.90
10885;DHT22;5495;53.252;10.390;2023-01-15T08:50:21;6.70;99.90
10885;DHT22;5495;53.252;10.390;2023-01-15T08:53:34;9.80;99.90
10885;DHT22;5495;53.252;10.390;2023-01-15T08:56:17;6.80;99.90
10885;DHT22;5495;53.252;10.390;2023-01-15T08:58:47;6.90;99.90
10885;DHT22;5495;53.252;10.390;2023-01-15T09:01:22;7.00;99.90
10885;DHT22;5495;53.252;10.390;2023-01-15T09:03:51;7.00;99.90
10885;DHT22;5495;53.252;10.390;2023-01-15T09:08:05;7.10;99.90
10885;DHT22;5495;53.252;10.390;2023-01-15T09:10:43;7.30;99.90
10885;DHT22;5495;53.252;10.390;2023-01-15T09:13:41;7.30;99.90
10885;DHT22;5495;53.252;10.390;2023-01-15T09:16:36;7.30;99.90
10885;DHT22;5495;53.252;10.390;2023-01-15T09:19:10;8.30;99.90
10885;DHT22;5495;53.252;10.390;2023-01-15T09:22:02;7.30;99.90
10885;DHT22;5495;53.252;10.390;2023-01-15T09:25:09;7.20;99.90
10885;DHT22;5495;53.252;10.390;2023-01-15T09:28:17;7.00;99.90
10885;DHT22;5495;53.252;10.390;2023-01-15T09:30:58;7.80;99.90
10885;DHT22;5495;53.252;10.390;2023-01-15T09:33:26;7.00;99.90
10885;DHT22;5495;53.252;10.390;2023-01-15T09:36:04;6.90;99.90
10885;DHT22;5495;53.252;10.390;2023-01-15T09:38:43;6.90;99.90
10885;DHT22;5495;53.252;10.390;2023-01-15T09:41:14;6.90;99.90
10885;DHT22;5495;53.252;10.390;2023-01-15T09:44:18;7.00;99.90
10885;DHT22;5495;53.252;10.390;2023-01-15T09:47:07;6.90;99.90
10885;DHT22;5495;53.252;10.390;2023-01-15T09:53:09;3.70;99.90
10885;DHT22;5495;53.252;10.390;2023-01-15T09:55:45;7.50;99.90
10885;DHT22;5495;53.252;10.390;2023-01-15T09:58:31;7.00;99.90
10885;DHT22;5495;53.252;10.390;2023-01-15T10:01:11;7.10;99.90
10885;DHT22;5495;53.252;10.390;2023-01-15T10:03:47;7.00;99.90
10885;DHT22;5495;53.252;10.390;2023-01-15T10:06:20;7.00;99.90
10885;DHT22;5495;53.252;10.390;2023-01-15T10:08:58;6.90;99.90
10885;DHT22;5495;53.252;10.390;2023-01-15T10:11:43;6.90;99.90
10885;DHT22;5495;53.252;10.390;2023-01-15T10:14:39;6.80;99.90
10885;DHT22;5495;53.252;10.390;2023-01-15T10:17:19;6.70;99.90
10885;DHT22;5495;53.252;10.390;2023-01-15T10:19:47;6.70;99.90
10885;DHT22;5495;53.252;10.390;2023-01-15T10:22:41;6.60;99.90
10885;DHT22;5495;53.252;10.390;2023-01-15T10:25:26;6.70;99.90
10885;DHT22;5495;53.252;10.390;2023-01-15T10:28:02;6.80;99.90
10885;DHT22;5495;53.252;10.390;2023-01-15T10:30:40;6.80;99.90
10885;DHT22;5495;53.252;10.390;2023-01-15T10:33:26;7.00;99.90
10885;DHT22;5495;53.252;10.390;2023-01-15T10:36:16;7.20;99.90
10885;DHT22;5495;53.252;10.390;2023-01-15T10:38:57;7.30;99.90
10885;DHT22;5495;53.252;10.390;2023-01-15T10:41:51;7.60;99.90
10885;DHT22;5495;53.252;10.390;2023-01-15T10:44:38;8.20;99.90
10885;DHT22;5495;53.252;10.390;2023-01-15T10:47:14;8.60;99.90
10885;DHT22;5495;53.252;10.390;2023-01-15T10:49:47;8.40;99.90
10885;DHT22;5495;53.252;10.390;2023-01-15T10:52:22;8.50;99.90
10885;DHT22;5495;53.252;10.390;2023-01-15T10:54:56;9.30;99.90
10885;DHT22;5495;53.252;10.390;2023-01-15T10:57:37;10.40;99.90
10885;DHT22;5495;53.252;10.390;2023-01-15T11:00:11;11.30;99.90
10885;DHT22;5495;53.252;10.390;2023-01-15T11:02:43;10.70;99.90
10885;DHT22;5495;53.252;10.390;2023-01-15T11:05:16;9.70;99.90
10885;DHT22;5495;53.252;10.390;2023-01-15T11:07:47;10.10;99.90
10885;DHT22;5495;53.252;10.390;2023-01-15T11:10:17;11.10;99.90
10885;DHT22;5495;53.252;10.390;2023-01-15T11:12:50;12.20;99.90
10885;DHT22;5495;53.252;10.390;2023-01-15T11:15:35;13.40;99.90
10885;DHT22;5495;53.252;10.390;2023-01-15T11:18:24;16.70;99.90
10885;DHT22;5495;53.252;10.390;2023-01-15T11:21:11;16.60;99.90
10885;DHT22;5495;53.252;10.390;2023-01-15T11:23:39;18.20;97.50
10885;DHT22;5495;53.252;10.390;2023-01-15T11:26:07;18.70;96.00
10885;DHT22;5495;53.252;10.390;2023-01-15T11:28:38;19.20;94.30
10885;DHT22;5495;53.252;10.390;2023-01-15T11:31:06;20.00;93.60
10885;DHT22;5495;53.252;10.390;2023-01-15T11:33:37;20.40;91.60
10885;DHT22;5495;53.252;10.390;2023-01-15T11:36:07;20.70;92.00
10885;DHT22;5495;53.252;10.390;2023-01-15T11:38:43;21.40;90.10
10885;DHT22;5495;53.252;10.390;2023-01-15T11:41:20;22.10;89.70
10885;DHT22;5495;53.252;10.390;2023-01-15T11:43:55;22.00;86.90
10885;DHT22;5495;53.252;10.390;2023-01-15T11:46:40;21.90;86.90
10885;DHT22;5495;53.252;10.390;2023-01-15T11:49:32;21.60;85.90
10885;DHT22;5495;53.252;10.390;2023-01-15T11:52:21;22.10;84.30
10885;DHT22;5495;53.252;10.390;2023-01-15T11:54:52;21.80;83.70
10885;DHT22;5495;53.252;10.390;2023-01-15T11:57:25;19.40;84.90
10885;DHT22;5495;53.252;10.390;2023-01-15T11:59:54;16.70;90.20
10885;DHT22;5495;53.252;10.390;2023-01-15T12:02:32;14.90;90.50
10885;DHT22;5495;53.252;10.390;2023-01-15T12:05:12;14.10;92.50
10885;DHT22;5495;53.252;10.390;2023-01-15T12:07:45;14.60;92.60
10885;DHT22;5495;53.252;10.390;2023-01-15T12:10:19;14.80;92.70
10885;DHT22;5495;53.252;10.390;2023-01-15T12:13:26;13.50;93.50
10885;DHT22;5495;53.252;10.390;2023-01-15T12:16:02;12.30;94.70
10885;DHT22;5495;53.252;10.390;2023-01-15T12:18:51;11.60;96.30
10885;DHT22;5495;53.252;10.390;2023-01-15T12:21:44;11.00;97.10
10885;DHT22;5495;53.252;10.390;2023-01-15T12:27:39;10.50;99.60
10885;DHT22;5495;53.252;10.390;2023-01-15T12:30:24;10.00;99.50
10885;DHT22;5495;53.252;10.390;2023-01-15T12:32:59;10.10;99.40
10885;DHT22;5495;53.252;10.390;2023-01-15T12:35:37;9.70;99.90
10885;DHT22;5495;53.252;10.390;2023-01-15T12:38:20;9.50;99.90
10885;DHT22;5495;53.252;10.390;2023-01-15T12:40:59;9.20;99.90
10885;DHT22;5495;53.252;10.390;2023-01-15T12:43:39;8.90;99.90
10885;DHT22;5495;53.252;10.390;2023-01-15T12:46:31;8.80;99.90
10885;DHT22;5495;53.252;10.390;2023-01-15T12:49:07;8.60;99.90
10885;DHT22;5495;53.252;10.390;2023-01-15T12:51:44;8.60;99.90
10885;DHT22;5495;53.252;10.390;2023-01-15T12:54:27;8.60;99.90
10885;DHT22;5495;53.252;10.390;2023-01-15T12:57:02;7.90;99.90
10885;DHT22;5495;53.252;10.390;2023-01-15T12:59:35;8.40;99.90
10885;DHT22;5495;53.252;10.390;2023-01-15T13:02:19;8.20;99.90
10885;DHT22;5495;53.252;10.390;2023-01-15T13:04:51;8.20;99.90
10885;DHT22;5495;53.252;10.390;2023-01-15T13:07:27;8.10;99.90
10885;DHT22;5495;53.252;10.390;2023-01-15T13:10:05;8.20;99.90
10885;DHT22;5495;53.252;10.390;2023-01-15T13:13:13;8.10;99.90
10885;DHT22;5495;53.252;10.390;2023-01-15T13:16:11;8.10;99.90
10885;DHT22;5495;53.252;10.390;2023-01-15T13:18:48;8.20;99.90
10885;DHT22;5495;53.252;10.390;2023-01-15T13:21:19;8.30;99.90
10885;DHT22;5495;53.252;10.390;2023-01-15T13:24:02;8.10;99.90
10885;DHT22;5495;53.252;10.390;2023-01-15T13:27:11;8.10;99.90
10885;DHT22;5495;53.252;10.390;2023-01-15T13:29:57;8.40;99.90
10885;DHT22;5495;53.252;10.390;2023-01-15T13:39:01;7.90;99.90
10885;DHT22;5495;53.252;10.390;2023-01-15T13:41:33;8.00;99.90
10885;DHT22;5495;53.252;10.390;2023-01-15T13:44:47;8.40;99.90
10885;DHT22;5495;53.252;10.390;2023-01-15T13:47:22;7.90;99.90
10885;DHT22;5495;53.252;10.390;2023-01-15T13:50:15;7.80;99.90
10885;DHT22;5495;53.252;10.390;2023-01-15T13:53:15;7.70;99.90
10885;DHT22;5495;53.252;10.390;2023-01-15T13:55:56;7.70;99.90
10885;DHT22;5495;53.252;10.390;2023-01-15T13:58:53;7.60;99.90
10885;DHT22;5495;53.252;10.390;2023-01-15T14:01:39;7.50;99.90
10885;DHT22;5495;53.252;10.390;2023-01-15T14:04:32;7.90;99.90
10885;DHT22;5495;53.252;10.390;2023-01-15T14:07:33;7.50;99.90
10885;DHT22;5495;53.252;10.390;2023-01-15T14:10:35;7.50;99.90
10885;DHT22;5495;53.252;10.390;2023-01-15T14:13:25;7.50;99.90
10885;DHT22;5495;53.252;10.390;2023-01-15T14:16:21;7.40;99.90
10885;DHT22;5495;53.252;10.390;2023-01-15T14:19:14;7.30;99.90
10885;DHT22;5495;53.252;10.390;2023-01-15T14:21:55;7.20;99.90
10885;DHT22;5495;53.252;10.390;2023-01-15T14:24:49;7.20;99.90
10885;DHT22;5495;53.252;10.390;2023-01-15T14:33:22;7.30;99.90
10885;DHT22;5495;53.252;10.390;2023-01-15T14:36:08;7.30;99.90
10885;DHT22;5495;53.252;10.390;2023-01-15T14:38:47;7.30;99.90
10885;DHT22;5495;53.252;10.390;2023-01-15T14:41:22;7.30;99.90
10885;DHT22;5495;53.252;10.390;2023-01-15T14:43:55;7.30;99.90
10885;DHT22;5495;53.252;10.390;2023-01-15T14:46:27;7.30;99.90
10885;DHT22;5495;53.252;10.390;2023-01-15T14:49:00;7.60;99.90
10885;DHT22;5495;53.252;10.390;2023-01-15T14:51:30;7.40;99.90
10885;DHT22;5495;53.252;10.390;2023-01-15T14:54:14;7.30;99.90
10885;DHT22;5495;53.252;10.390;2023-01-15T14:56:47;7.30;99.90
10885;DHT22;5495;53.252;10.390;2023-01-15T14:59:29;7.40;99.90
10885;DHT22;5495;53.252;10.390;2023-01-15T15:02:01;7.40;99.90
10885;DHT22;5495;53.252;10.390;2023-01-15T15:04:48;7.40;99.90
10885;DHT22;5495;53.252;10.390;2023-01-15T15:07:23;7.40;99.90
10885;DHT22;5495;53.252;10.390;2023-01-15T15:09:55;7.50;99.90
10885;DHT22;5495;53.252;10.390;2023-01-15T15:12:51;7.40;99.90
10885;DHT22;5495;53.252;10.390;2023-01-15T15:18:32;7.30;99.90
10885;DHT22;5495;53.252;10.390;2023-01-15T15:21:13;7.40;99.90
10885;DHT22;5495;53.252;10.390;2023-01-15T15:24:17;7.30;99.90
10885;DHT22;5495;53.252;10.390;2023-01-15T15:27:15;7.50;99.90
10885;DHT22;5495;53.252;10.390;2023-01-15T15:30:04;6.10;99.90
10885;DHT22;5495;53.252;10.390;2023-01-15T15:32:42;7.40;99.90
10885;DHT22;5495;53.252;10.390;2023-01-15T15:35:23;7.30;99.90
10885;DHT22;5495;53.252;10.390;2023-01-15T16:21:34;7.20;99.90
10885;DHT22;5495;53.252;10.390;2023-01-15T16:24:34;7.10;99.90
10885;DHT22;5495;53.252;10.390;2023-01-15T16:27:45;7.10;99.90
10885;DHT22;5495;53.252;10.390;2023-01-15T16:58:30;7.10;99.90
10885;DHT22;5495;53.252;10.390;2023-01-15T17:01:39;7.20;99.90
10885;DHT22;5495;53.252;10.390;2023-01-15T17:04:55;7.00;99.90
10885;DHT22;5495;53.252;10.390;2023-01-15T17:07:51;7.30;99.90
10885;DHT22;5495;53.252;10.390;2023-01-15T17:10:31;7.00;99.90
10885;DHT22;5495;53.252;10.390;2023-01-15T17:13:01;6.90;99.90
10885;DHT22;5495;53.252;10.390;2023-01-15T17:15:47;6.90;99.90
10885;DHT22;5495;53.252;10.390;2023-01-15T17:18:31;6.80;99.90
10885;DHT22;5495;53.252;10.390;2023-01-15T17:21:13;6.80;99.90
10885;DHT22;5495;53.252;10.390;2023-01-15T17:23:43;6.80;99.90
10885;DHT22;5495;53.252;10.390;2023-01-15T17:26:15;6.80;99.90
10885;DHT22;5495;53.252;10.390;2023-01-15T17:28:44;6.80;99.90
10885;DHT22;5495;53.252;10.390;2023-01-15T17:31:23;6.80;99.90
10885;DHT22;5495;53.252;10.390;2023-01-15T17:33:50;7.00;99.90
10885;DHT22;5495;53.252;10.390;2023-01-15T17:36:18;6.70;99.90
10885;DHT22;5495;53.252;10.390;2023-01-15T17:38:47;6.60;99.90
10885;DHT22;5495;53.252;10.390;2023-01-15T17:41:19;6.80;99.90
10885;DHT22;5495;53.252;10.390;2023-01-15T17:43:46;6.50;99.90
10885;DHT22;5495;53.252;10.390;2023-01-15T17:46:14;6.50;99.90
10885;DHT22;5495;53.252;10.390;2023-01-15T17:48:44;6.50;99.90
10885;DHT22;5495;53.252;10.390;2023-01-15T17:51:13;6.50;99.90
10885;DHT22;5495;53.252;10.390;2023-01-15T17:53:41;6.40;99.90
10885;DHT22;5495;53.252;10.390;2023-01-15T17:56:12;6.40;99.90
10885;DHT22;5495;53.252;10.390;2023-01-15T17:58:57;6.40;99.90
10885;DHT22;5495;53.252;10.390;2023-01-15T18:01:39;6.30;99.90
10885;DHT22;5495;53.252;10.390;2023-01-15T18:04:29;6.30;99.90
10885;DHT22;5495;53.252;10.390;2023-01-15T18:07:16;6.60;99.90
10885;DHT22;5495;53.252;10.390;2023-01-15T18:09:44;6.30;99.90
10885;DHT22;5495;53.252;10.390;2023-01-15T18:12:12;6.00;99.90
10885;DHT22;5495;53.252;10.390;2023-01-15T18:14:41;6.30;99.90
10885;DHT22;5495;53.252;10.390;2023-01-15T18:17:09;6.50;99.90
10885;DHT22;5495;53.252;10.390;2023-01-15T18:19:38;6.20;99.90